createdAt,value
2022-10-24T00:01:16.399Z,96547.25
2022-10-24T00:03:43.559Z,96542.50
2022-10-24T00:06:12.435Z,96549.44
2022-10-24T00:08:41.997Z,96568.16
2022-10-24T00:11:17.015Z,96570.47
2022-10-24T00:13:44.508Z,96568.41
2022-10-24T00:16:12.415Z,96571.97
2022-10-24T00:18:39.933Z,96568.28
2022-10-24T00:21:08.108Z,96557.97
2022-10-24T00:23:35.948Z,96554.75
2022-10-24T00:26:04.324Z,96557.97
2022-10-24T00:28:34.131Z,96571.16
2022-10-24T00:31:01.477Z,96568.72
2022-10-24T00:33:28.605Z,96557.28
2022-10-24T00:35:55.433Z,96567.91
2022-10-24T00:38:22.407Z,96592.09
2022-10-24T00:40:49.273Z,96589.16
2022-10-24T00:43:24.493Z,96596.91
2022-10-24T00:45:57.390Z,96609.75
2022-10-24T00:48:44.912Z,96606.84
2022-10-24T00:51:19.110Z,96618.03
2022-10-24T00:53:50.426Z,96619.91
2022-10-24T00:56:20.873Z,96620.22
2022-10-24T00:58:49.458Z,96595.66
2022-10-24T01:01:16.609Z,96585.16
2022-10-24T01:03:43.535Z,96581.69
2022-10-24T01:06:44.235Z,96576.47
2022-10-24T01:09:41.513Z,96565.03
2022-10-24T01:12:26.725Z,96547.03
2022-10-24T01:15:20.741Z,96545.03
2022-10-24T01:18:18.253Z,96559.25
2022-10-24T01:21:24.686Z,96551.63
2022-10-24T01:24:48.489Z,96542.06
2022-10-24T01:27:24.086Z,96538.38
2022-10-24T01:30:07.428Z,96520.13
2022-10-24T01:32:41.309Z,96528.78
2022-10-24T01:35:23.336Z,96537.44
2022-10-24T01:38:02.777Z,96528.34
2022-10-24T01:41:01.205Z,96519.91
2022-10-24T01:43:42.159Z,96515.50
2022-10-24T01:46:15.426Z,96507.06
2022-10-24T01:48:49.818Z,96493.06
2022-10-24T01:51:18.681Z,96464.28
2022-10-24T01:53:47.042Z,96451.13
2022-10-24T01:56:13.870Z,96453.19
2022-10-24T01:58:40.656Z,96494.13
2022-10-24T02:01:14.653Z,96474.91
2022-10-24T02:03:49.808Z,96477.31
2022-10-24T02:06:25.870Z,96476.22
2022-10-24T02:08:58.552Z,96483.56
2022-10-24T02:11:25.824Z,96477.06
2022-10-24T02:13:56.066Z,96479.66
2022-10-24T02:16:22.903Z,96472.13
2022-10-24T02:18:53.122Z,96468.44
2022-10-24T02:21:35.255Z,96450.31
2022-10-24T02:24:15.749Z,96445.34
2022-10-24T02:26:56.521Z,96445.34
2022-10-24T02:29:37.716Z,96434.06
2022-10-24T02:32:09.527Z,96427.03
2022-10-24T02:34:38.765Z,96426.00
2022-10-24T02:37:08.033Z,96419.06
2022-10-24T02:39:35.568Z,96400.47
2022-10-24T02:42:04.477Z,96401.53
2022-10-24T02:44:32.525Z,96386.31
2022-10-24T02:47:04.483Z,96382.16
2022-10-24T02:49:31.322Z,96376.16
2022-10-24T02:51:59.247Z,96370.84
2022-10-24T02:54:26.048Z,96382.38
2022-10-24T02:57:01.535Z,96392.88
2022-10-24T02:59:29.301Z,96396.56
2022-10-24T03:01:56.475Z,96404.50
2022-10-24T03:04:23.485Z,96402.78
2022-10-24T03:06:50.415Z,96401.38
2022-10-24T03:09:17.180Z,96406.69
2022-10-24T03:11:43.963Z,96408.31
2022-10-24T03:14:10.775Z,96400.22
2022-10-24T03:16:37.613Z,96403.91
2022-10-24T03:19:04.481Z,96399.53
2022-10-24T03:21:31.493Z,96385.81
2022-10-24T03:23:58.357Z,96392.97
2022-10-24T03:26:25.293Z,96397.34
2022-10-24T03:28:52.121Z,96412.31
2022-10-24T03:31:18.956Z,96410.94
2022-10-24T03:33:45.763Z,96422.03
2022-10-24T03:36:12.546Z,96428.47
2022-10-24T03:38:39.401Z,96419.50
2022-10-24T03:41:06.418Z,96423.16
2022-10-24T03:43:33.227Z,96434.94
2022-10-24T03:46:00.063Z,96429.63
2022-10-24T03:48:27.075Z,96433.09
2022-10-24T03:50:53.931Z,96442.75
2022-10-24T03:53:20.872Z,96445.31
2022-10-24T03:55:47.681Z,96443.25
2022-10-24T03:58:14.453Z,96448.06
2022-10-24T04:00:42.972Z,96435.63
2022-10-24T04:03:10.738Z,96425.34
2022-10-24T04:08:09.421Z,96444.50
2022-10-24T04:10:36.609Z,96441.41
2022-10-24T04:13:03.531Z,96444.06
2022-10-24T04:15:31.038Z,96447.38
2022-10-24T04:17:57.848Z,96461.91
2022-10-24T04:20:24.653Z,96466.28
2022-10-24T04:22:51.529Z,96457.97
2022-10-24T04:25:18.918Z,96462.81
2022-10-24T04:27:46.357Z,96455.31
2022-10-24T04:30:16.603Z,96456.34
2022-10-24T04:32:44.741Z,96446.34
2022-10-24T04:35:12.358Z,96444.94
2022-10-24T04:37:39.220Z,96460.63
2022-10-24T04:40:06.928Z,96456.00
2022-10-24T04:42:33.786Z,96460.50
2022-10-24T04:45:00.606Z,96462.13
2022-10-24T04:47:27.498Z,96464.19
2022-10-24T04:49:54.356Z,96459.47
2022-10-24T04:52:21.218Z,96448.66
2022-10-24T04:54:48.195Z,96449.56
2022-10-24T04:57:15.036Z,96453.94
2022-10-24T04:59:41.827Z,96440.78
2022-10-24T05:02:08.799Z,96453.88
2022-10-24T05:04:35.567Z,96471.47
2022-10-24T05:07:02.389Z,96470.13
2022-10-24T05:09:29.197Z,96474.53
2022-10-24T05:11:56.865Z,96474.06
2022-10-24T05:14:24.118Z,96472.00
2022-10-24T05:16:51.059Z,96469.13
2022-10-24T05:19:19.583Z,96463.59
2022-10-24T05:21:46.784Z,96469.47
2022-10-24T05:24:13.591Z,96469.94
2022-10-24T05:26:40.439Z,96462.56
2022-10-24T05:31:39.092Z,96477.91
2022-10-24T05:34:05.874Z,96472.00
2022-10-24T05:36:32.649Z,96472.00
2022-10-24T05:38:59.430Z,96483.19
2022-10-24T05:41:26.195Z,96475.25
2022-10-24T05:43:53.025Z,96487.91
2022-10-24T05:46:19.887Z,96484.66
2022-10-24T05:48:46.854Z,96505.16
2022-10-24T05:51:13.693Z,96511.84
2022-10-24T05:53:40.494Z,96516.56
2022-10-24T05:56:08.056Z,96507.69
2022-10-24T05:58:34.857Z,96502.66
2022-10-24T06:01:02.033Z,96516.56
2022-10-24T06:03:29.209Z,96512.97
2022-10-24T06:05:55.992Z,96521.16
2022-10-24T06:08:22.842Z,96525.19
2022-10-24T06:10:50.992Z,96533.16
2022-10-24T06:13:18.513Z,96532.69
2022-10-24T06:15:45.381Z,96525.91
2022-10-24T06:18:12.436Z,96530.75
2022-10-24T06:20:39.463Z,96534.00
2022-10-24T06:23:06.285Z,96532.75
2022-10-24T06:25:33.140Z,96531.66
2022-10-24T06:28:00.468Z,96524.31
2022-10-24T06:30:27.671Z,96535.94
2022-10-24T06:32:54.488Z,96532.84
2022-10-24T06:35:21.276Z,96531.47
2022-10-24T06:37:48.570Z,96526.19
2022-10-24T06:40:17.909Z,96526.31
2022-10-24T06:42:45.158Z,96529.31
2022-10-24T06:45:12.549Z,96536.16
2022-10-24T06:47:39.713Z,96534.06
2022-10-24T06:50:07.180Z,96525.69
2022-10-24T06:52:34.034Z,96519.97
2022-10-24T06:55:00.816Z,96512.47
2022-10-24T06:57:27.609Z,96510.41
2022-10-24T06:59:54.799Z,96515.28
2022-10-24T07:02:21.686Z,96502.34
2022-10-24T07:04:48.587Z,96514.81
2022-10-24T07:07:21.394Z,96509.06
2022-10-24T07:09:57.473Z,96504.91
2022-10-24T07:12:25.481Z,96508.81
2022-10-24T07:14:52.556Z,96506.03
2022-10-24T07:17:20.477Z,96509.63
2022-10-24T07:19:53.856Z,96507.91
2022-10-24T07:22:20.773Z,96500.41
2022-10-24T07:24:56.109Z,96513.00
2022-10-24T07:27:23.664Z,96520.50
2022-10-24T07:29:51.515Z,96532.72
2022-10-24T07:32:19.956Z,96528.66
2022-10-24T07:34:47.759Z,96526.16
2022-10-24T07:37:16.432Z,96521.03
2022-10-24T07:39:44.062Z,96515.84
2022-10-24T07:42:15.619Z,96518.97
2022-10-24T07:44:42.414Z,96527.03
2022-10-24T07:47:09.991Z,96529.13
2022-10-24T07:49:36.902Z,96529.81
2022-10-24T07:52:04.060Z,96523.56
2022-10-24T07:54:33.137Z,96529.00
2022-10-24T07:57:03.287Z,96537.75
2022-10-24T07:59:41.764Z,96528.31
2022-10-24T08:02:12.370Z,96536.59
2022-10-24T08:04:39.801Z,96541.59
2022-10-24T08:07:13.307Z,96544.59
2022-10-24T08:09:44.463Z,96556.03
2022-10-24T08:12:11.935Z,96553.28
2022-10-24T08:14:40.979Z,96550.97
2022-10-24T08:17:08.275Z,96557.19
2022-10-24T08:19:35.650Z,96562.28
2022-10-24T08:22:03.341Z,96552.47
2022-10-24T08:24:30.121Z,96547.81
2022-10-24T08:26:56.907Z,96541.94
2022-10-24T08:29:25.017Z,96538.94
2022-10-24T08:31:54.299Z,96531.53
2022-10-24T08:34:22.444Z,96539.84
2022-10-24T08:36:50.568Z,96539.94
2022-10-24T08:39:18.106Z,96535.31
2022-10-24T08:42:02.070Z,96512.72
2022-10-24T08:44:39.985Z,96515.84
2022-10-24T08:47:20.716Z,96535.03
2022-10-24T08:50:10.853Z,96533.97
2022-10-24T08:52:46.841Z,96532.34
2022-10-24T08:55:37.018Z,96524.59
2022-10-24T08:58:17.837Z,96514.91
2022-10-24T09:00:48.752Z,96529.44
2022-10-24T09:03:55.535Z,96522.84
2022-10-24T09:06:27.071Z,96526.88
2022-10-24T09:08:56.514Z,96540.41
2022-10-24T09:11:53.022Z,96528.50
2022-10-24T09:14:28.344Z,96525.88
2022-10-24T09:17:11.315Z,96532.34
2022-10-24T09:19:39.102Z,96530.56
2022-10-24T09:22:07.335Z,96522.84
2022-10-24T09:24:47.169Z,96521.38
2022-10-24T09:27:23.767Z,96541.22
2022-10-24T09:29:51.774Z,96538.09
2022-10-24T09:32:23.403Z,96536.09
2022-10-24T09:34:50.911Z,96534.72
2022-10-24T09:37:56.214Z,96542.06
2022-10-24T09:40:27.275Z,96540.81
2022-10-24T09:43:22.124Z,96535.22
2022-10-24T09:45:51.844Z,96541.88
2022-10-24T09:48:30.319Z,96562.22
2022-10-24T09:50:58.568Z,96558.59
2022-10-24T09:53:36.306Z,96546.66
2022-10-24T09:56:15.898Z,96554.50
2022-10-24T09:58:43.133Z,96548.06
2022-10-24T10:01:20.814Z,96553.97
2022-10-24T10:04:08.855Z,96561.13
2022-10-24T10:06:46.365Z,96579.06
2022-10-24T10:09:17.176Z,96576.91
2022-10-24T10:11:49.366Z,96575.00
2022-10-24T10:14:30.060Z,96578.44
2022-10-24T10:17:05.009Z,96580.72
2022-10-24T10:19:37.509Z,96583.97
2022-10-24T10:22:24.556Z,96574.84
2022-10-24T10:24:52.006Z,96584.91
2022-10-24T10:27:36.929Z,96583.31
2022-10-24T10:30:12.507Z,96578.44
2022-10-24T10:33:11.349Z,96584.69
2022-10-24T10:36:18.913Z,96579.25
2022-10-24T10:38:55.644Z,96569.41
2022-10-24T10:41:49.548Z,96562.03
2022-10-24T10:44:35.353Z,96567.34
2022-10-24T10:47:27.993Z,96554.50
2022-10-24T10:49:58.956Z,96548.47
2022-10-24T10:52:48.710Z,96550.22
2022-10-24T10:55:27.497Z,96562.84
2022-10-24T10:57:57.145Z,96567.91
2022-10-24T11:00:30.348Z,96567.44
2022-10-24T11:03:08.056Z,96564.72
2022-10-24T11:05:54.009Z,96581.47
2022-10-24T11:09:25.703Z,96577.22
2022-10-24T11:12:02.724Z,96593.97
2022-10-24T11:14:48.701Z,96590.28
2022-10-24T11:17:24.271Z,96590.03
2022-10-24T11:20:08.077Z,96592.38
2022-10-24T11:22:44.485Z,96584.03
2022-10-24T11:25:39.982Z,96590.97
2022-10-24T11:28:29.080Z,96589.34
2022-10-24T11:31:23.317Z,96592.16
2022-10-24T11:33:57.901Z,96591.59
2022-10-24T11:36:50.829Z,96591.00
2022-10-24T11:39:33.400Z,96585.25
2022-10-24T11:42:36.434Z,96591.59
2022-10-24T11:45:12.830Z,96591.16
2022-10-24T11:48:30.648Z,96589.53
2022-10-24T11:51:34.444Z,96595.19
2022-10-24T11:54:12.553Z,96585.00
2022-10-24T11:57:10.605Z,96575.53
2022-10-24T11:59:40.949Z,96577.41
2022-10-24T12:02:43.877Z,96573.03
2022-10-24T12:05:47.244Z,96587.56
2022-10-24T12:08:26.482Z,96579.13
2022-10-24T12:11:31.966Z,96580.28
2022-10-24T12:14:54.780Z,96584.56
2022-10-24T12:17:49.392Z,96592.16
2022-10-24T12:20:21.314Z,96593.47
2022-10-24T12:22:50.034Z,96601.31
2022-10-24T12:25:37.706Z,96602.66
2022-10-24T12:28:17.983Z,96613.00
2022-10-24T12:31:20.993Z,96606.94
2022-10-24T12:34:16.727Z,96607.66
2022-10-24T12:37:05.855Z,96597.38
2022-10-24T12:39:40.286Z,96589.75
2022-10-24T12:42:34.322Z,96592.06
2022-10-24T12:45:00.997Z,96592.63
2022-10-24T12:48:04.449Z,96591.25
2022-10-24T12:50:34.401Z,96595.41
2022-10-24T12:53:04.598Z,96574.75
2022-10-24T12:55:39.765Z,96576.81
2022-10-24T12:58:30.145Z,96570.47
2022-10-24T13:01:13.230Z,96552.47
2022-10-24T13:03:54.674Z,96558.44
2022-10-24T13:06:32.719Z,96559.59
2022-10-24T13:09:42.257Z,96557.78
2022-10-24T13:12:37.059Z,96528.19
2022-10-24T13:15:22.613Z,96520.84
2022-10-24T13:18:43.577Z,96512.28
2022-10-24T13:21:32.432Z,96525.44
2022-10-24T13:24:17.073Z,96533.06
2022-10-24T13:26:51.292Z,96533.97
2022-10-24T13:29:37.965Z,96533.28
2022-10-24T13:32:04.636Z,96537.13
2022-10-24T13:34:45.778Z,96532.78
2022-10-24T13:37:34.250Z,96512.06
2022-10-24T13:40:23.789Z,96506.28
2022-10-24T13:43:07.474Z,96501.75
2022-10-24T13:45:54.153Z,96509.88
2022-10-24T13:48:24.517Z,96491.63
2022-10-24T13:51:24.736Z,96504.91
2022-10-24T13:54:27.333Z,96490.94
2022-10-24T13:56:57.092Z,96498.63
2022-10-24T13:59:34.944Z,96506.19
2022-10-24T14:02:13.626Z,96508.25
2022-10-24T14:04:47.036Z,96505.94
2022-10-24T14:07:21.758Z,96503.28
2022-10-24T14:10:08.333Z,96476.00
2022-10-24T14:12:36.915Z,96458.38
2022-10-24T14:15:06.349Z,96465.50
2022-10-24T14:17:35.728Z,96466.91
2022-10-24T14:20:13.283Z,96499.38
2022-10-24T14:22:41.395Z,96518.22
2022-10-24T14:25:24.487Z,96521.69
2022-10-24T14:27:55.228Z,96520.25
2022-10-24T14:30:30.716Z,96522.13
2022-10-24T14:33:13.387Z,96533.44
2022-10-24T14:35:41.109Z,96536.50
2022-10-24T14:38:13.414Z,96531.06
2022-10-24T14:40:43.376Z,96520.50
2022-10-24T14:46:11.635Z,96522.66
2022-10-24T14:48:42.138Z,96526.56
2022-10-24T14:51:28.865Z,96525.53
2022-10-24T14:53:57.333Z,96524.97
2022-10-24T14:56:36.772Z,96521.69
2022-10-24T14:59:07.205Z,96524.97
2022-10-24T15:01:34.438Z,96522.22
2022-10-24T15:04:04.755Z,96527.50
2022-10-24T15:06:41.626Z,96512.28
2022-10-24T15:09:11.412Z,96513.44
2022-10-24T15:11:47.634Z,96526.34
2022-10-24T15:14:35.664Z,96527.16
2022-10-24T15:17:32.687Z,96530.75
2022-10-24T15:20:02.599Z,96526.34
2022-10-24T15:22:38.266Z,96532.34
2022-10-24T15:25:26.532Z,96533.75
2022-10-24T15:27:59.169Z,96538.38
2022-10-24T15:30:31.415Z,96531.53
2022-10-24T15:33:00.308Z,96524.28
2022-10-24T15:35:28.500Z,96523.47
2022-10-24T15:38:04.047Z,96522.50
2022-10-24T15:40:35.500Z,96529.28
2022-10-24T15:43:02.396Z,96537.72
2022-10-24T15:45:29.192Z,96531.69
2022-10-24T15:47:55.984Z,96538.03
2022-10-24T15:50:24.418Z,96541.97
2022-10-24T15:52:56.990Z,96544.38
2022-10-24T15:55:27.708Z,96551.16
2022-10-24T15:57:54.765Z,96550.53
2022-10-24T16:00:23.029Z,96551.34
2022-10-24T16:02:52.869Z,96553.44
2022-10-24T16:05:24.170Z,96556.78
2022-10-24T16:07:54.065Z,96554.13
2022-10-24T16:10:22.845Z,96559.00
2022-10-24T16:12:50.863Z,96569.59
2022-10-24T16:15:27.886Z,96577.41
2022-10-24T16:17:55.061Z,96582.78
2022-10-24T16:20:22.078Z,96575.16
2022-10-24T16:22:49.016Z,96583.13
2022-10-24T16:25:23.571Z,96579.41
2022-10-24T16:27:51.259Z,96585.81
2022-10-24T16:30:21.486Z,96577.41
2022-10-24T16:32:49.192Z,96570.97
2022-10-24T16:35:30.024Z,96569.09
2022-10-24T16:37:58.753Z,96575.53
2022-10-24T16:40:27.005Z,96576.31
2022-10-24T16:42:56.932Z,96577.41
2022-10-24T16:45:24.705Z,96581.97
2022-10-24T16:47:51.904Z,96583.59
2022-10-24T16:50:26.401Z,96581.41
2022-10-24T16:52:55.670Z,96577.13
2022-10-24T16:55:22.934Z,96573.09
2022-10-24T16:57:49.875Z,96578.13
2022-10-24T17:00:20.929Z,96575.25
2022-10-24T17:02:51.175Z,96580.84
2022-10-24T17:05:21.017Z,96577.59
2022-10-24T17:07:48.628Z,96580.84
2022-10-24T17:10:19.486Z,96577.19
2022-10-24T17:12:49.076Z,96585.34
2022-10-24T17:15:21.070Z,96579.19
2022-10-24T17:17:49.563Z,96578.97
2022-10-24T17:20:17.287Z,96571.91
2022-10-24T17:22:47.514Z,96578.78
2022-10-24T17:25:22.434Z,96590.28
2022-10-24T17:27:50.175Z,96586.94
2022-10-24T17:30:29.662Z,96592.84
2022-10-24T17:32:56.916Z,96596.63
2022-10-24T17:35:25.789Z,96598.97
2022-10-24T17:38:14.186Z,96596.03
2022-10-24T17:40:45.683Z,96596.03
2022-10-24T17:43:22.475Z,96600.16
2022-10-24T17:45:53.141Z,96604.28
2022-10-24T17:48:20.521Z,96587.22
2022-10-24T17:50:50.162Z,96600.84
2022-10-24T17:53:18.682Z,96598.66
2022-10-24T17:55:47.843Z,96604.38
2022-10-24T17:58:16.766Z,96604.22
2022-10-24T18:00:44.858Z,96603.63
2022-10-24T18:03:12.367Z,96597.16
2022-10-24T18:05:39.300Z,96605.78
2022-10-24T18:08:11.340Z,96599.22
2022-10-24T18:10:40.194Z,96610.66
2022-10-24T18:13:08.490Z,96606.25
2022-10-24T18:15:37.228Z,96595.47
2022-10-24T18:18:05.249Z,96597.47
2022-10-24T18:20:32.730Z,96603.72
2022-10-24T18:23:02.244Z,96598.63
2022-10-24T18:25:29.337Z,96602.69
2022-10-24T18:27:56.871Z,96605.56
2022-10-24T18:30:23.933Z,96597.84
2022-10-24T18:32:50.984Z,96592.97
2022-10-24T18:35:20.462Z,96588.72
2022-10-24T18:37:47.305Z,96588.13
2022-10-24T18:40:14.933Z,96593.09
2022-10-24T18:42:54.396Z,96583.81
2022-10-24T18:45:25.238Z,96587.91
2022-10-24T18:47:53.739Z,96580.22
2022-10-24T18:50:23.789Z,96579.81
2022-10-24T18:53:03.292Z,96586.31
2022-10-24T18:55:32.473Z,96590.81
2022-10-24T18:57:59.602Z,96600.66
2022-10-24T19:00:30.540Z,96595.56
2022-10-24T19:03:25.085Z,96598.97
2022-10-24T19:06:27.035Z,96595.53
2022-10-24T19:08:53.904Z,96593.72
2022-10-24T19:11:24.594Z,96580.47
2022-10-24T19:13:51.609Z,96570.50
2022-10-24T19:16:28.624Z,96567.28
2022-10-24T19:19:03.052Z,96579.94
2022-10-24T19:21:29.973Z,96581.63
2022-10-24T19:23:56.777Z,96582.44
2022-10-24T19:26:23.692Z,96570.66
2022-10-24T19:28:50.592Z,96574.72
2022-10-24T19:31:17.394Z,96574.75
2022-10-24T19:33:44.222Z,96567.44
2022-10-24T19:36:14.324Z,96572.34
2022-10-24T19:38:43.785Z,96565.03
2022-10-24T19:41:11.738Z,96576.47
2022-10-24T19:43:38.823Z,96567.91
2022-10-24T19:46:18.918Z,96569.78
2022-10-24T19:48:51.202Z,96575.50
2022-10-24T19:51:19.384Z,96576.13
2022-10-24T19:53:47.830Z,96579.34
2022-10-24T19:56:21.424Z,96575.31
2022-10-24T19:58:51.229Z,96574.91
2022-10-24T20:01:25.041Z,96583.06
2022-10-24T20:03:52.430Z,96576.59
2022-10-24T20:06:19.701Z,96571.31
2022-10-24T20:08:47.918Z,96577.63
2022-10-24T20:11:15.718Z,96584.75
2022-10-24T20:13:43.573Z,96579.47
2022-10-24T20:16:10.853Z,96573.34
2022-10-24T20:21:17.672Z,96569.69
2022-10-24T20:23:46.234Z,96577.59
2022-10-24T20:26:17.254Z,96591.84
2022-10-24T20:28:48.185Z,96587.22
2022-10-24T20:31:22.846Z,96589.69
2022-10-24T20:33:50.870Z,96593.75
2022-10-24T20:36:18.414Z,96595.00
2022-10-24T20:38:45.508Z,96588.09
2022-10-24T20:41:12.398Z,96594.63
2022-10-24T20:43:39.429Z,96599.09
2022-10-24T20:46:06.996Z,96593.84
2022-10-24T20:48:34.868Z,96599.53
2022-10-24T20:51:14.561Z,96593.88
2022-10-24T20:53:42.036Z,96595.50
2022-10-24T20:56:18.298Z,96593.41
2022-10-24T20:58:45.634Z,96602.78
2022-10-24T21:01:15.938Z,96614.53
2022-10-24T21:03:43.532Z,96620.44
2022-10-24T21:06:24.573Z,96624.72
2022-10-24T21:08:54.354Z,96621.25
2022-10-24T21:11:27.627Z,96624.31
2022-10-24T21:13:58.205Z,96626.34
2022-10-24T21:16:25.874Z,96636.28
2022-10-24T21:18:53.609Z,96645.44
2022-10-24T21:21:21.609Z,96642.97
2022-10-24T21:23:56.214Z,96647.44
2022-10-24T21:26:23.723Z,96640.16
2022-10-24T21:28:59.400Z,96648.66
2022-10-24T21:31:40.349Z,96640.53
2022-10-24T21:34:07.195Z,96641.34
2022-10-24T21:36:34.002Z,96647.00
2022-10-24T21:39:00.849Z,96653.91
2022-10-24T21:41:28.592Z,96654.38
2022-10-24T21:43:55.562Z,96649.88
2022-10-24T21:46:25.597Z,96657.22
2022-10-24T21:48:54.924Z,96667.94
2022-10-24T21:51:28.437Z,96665.09
2022-10-24T21:54:07.030Z,96679.31
2022-10-24T21:56:39.019Z,96693.94
2022-10-24T21:59:11.445Z,96695.31
2022-10-24T22:01:39.392Z,96693.31
2022-10-24T22:04:07.333Z,96687.63
2022-10-24T22:06:35.771Z,96683.53
2022-10-24T22:09:04.026Z,96686.75
2022-10-24T22:11:33.865Z,96674.97
2022-10-24T22:14:01.117Z,96666.84
2022-10-24T22:16:30.383Z,96655.47
2022-10-24T22:19:04.104Z,96668.25
2022-10-24T22:21:35.213Z,96668.88
2022-10-24T22:24:18.091Z,96675.75
2022-10-24T22:26:45.147Z,96674.94
2022-10-24T22:29:17.102Z,96679.78
2022-10-24T22:31:44.657Z,96687.50
2022-10-24T22:34:20.678Z,96689.91
2022-10-24T22:37:12.391Z,96686.66
2022-10-24T22:39:40.289Z,96686.03
2022-10-24T22:42:13.530Z,96693.94
2022-10-24T22:44:43.867Z,96692.28
2022-10-24T22:47:21.473Z,96702.03
2022-10-24T22:50:21.715Z,96705.28
2022-10-24T22:52:50.501Z,96708.94
2022-10-24T22:55:34.822Z,96714.38
2022-10-24T22:58:01.927Z,96720.53
2022-10-24T23:00:29.301Z,96719.00
2022-10-24T23:03:40.099Z,96734.16
2022-10-24T23:06:45.429Z,96740.81
2022-10-24T23:09:12.402Z,96735.16
2022-10-24T23:11:39.979Z,96741.50
2022-10-24T23:14:07.179Z,96733.22
2022-10-24T23:16:36.363Z,96737.34
2022-10-24T23:19:26.283Z,96738.94
2022-10-24T23:21:58.612Z,96740.50
2022-10-24T23:24:26.237Z,96735.91
2022-10-24T23:27:24.855Z,96747.88
2022-10-24T23:29:51.953Z,96756.59
2022-10-24T23:32:27.445Z,96749.88
2022-10-24T23:34:55.878Z,96748.88
2022-10-24T23:37:31.957Z,96753.53
2022-10-24T23:40:32.062Z,96747.25
2022-10-24T23:42:59.575Z,96736.56
2022-10-24T23:45:32.942Z,96739.75
2022-10-24T23:48:26.911Z,96738.16
2022-10-24T23:51:04.197Z,96734.91
2022-10-24T23:53:48.875Z,96742.59
2022-10-24T23:56:17.738Z,96729.59
2022-10-24T23:58:44.724Z,96723.44
